Time;durP1;ratioP1;P1;durP2;ratioP2;P2;SDS_P1;SDS_P2;PMS_P1;PMS_P2;Temp;Humidity;BMP_temperature;BMP_pressure;BME280_temperature;BME280_humidity;BME280_pressure;Samples;Min_cycle;Max_cycle;Signal;HPM_P1;HPM_P2
2023/04/30 00:01:21;;;;;;;4.27;2.30;;;11.30;99.90;;;;;;5106916;28;20648;-71
2023/04/30 00:03:48;;;;;;;2.40;2.30;;;11.30;99.90;;;;;;5107980;28;20625;-72
2023/04/30 00:06:15;;;;;;;3.20;2.40;;;11.40;99.90;;;;;;5107779;28;20645;-72
2023/04/30 00:08:43;;;;;;;4.63;3.23;;;11.40;99.90;;;;;;5092309;28;20633;-71
2023/04/30 00:11:10;;;;;;;3.20;2.90;;;11.40;99.90;;;;;;5087477;28;21001;-71
2023/04/30 00:13:37;;;;;;;5.00;3.00;;;11.30;99.90;;;;;;5103245;28;20631;-72
2023/04/30 00:16:04;;;;;;;4.80;3.33;;;11.40;99.90;;;;;;5107911;28;20637;-72
2023/04/30 00:18:31;;;;;;;2.67;2.30;;;11.40;99.90;;;;;;5101971;28;20630;-71
2023/04/30 00:20:58;;;;;;;3.03;2.60;;;11.40;99.90;;;;;;5091144;28;20670;-72
2023/04/30 00:23:24;;;;;;;2.67;2.47;;;11.40;99.90;;;;;;5100246;28;20631;-71
2023/04/30 00:25:52;;;;;;;2.23;2.00;;;11.50;99.90;;;;;;5110711;28;20648;-72
2023/04/30 00:28:19;;;;;;;2.60;1.63;;;11.50;99.90;;;;;;5104318;28;20674;-71
2023/04/30 00:30:46;;;;;;;3.53;2.90;;;11.30;99.90;;;;;;5091235;28;20659;-72
2023/04/30 00:33:13;;;;;;;3.20;2.00;;;11.40;99.90;;;;;;5105233;28;20649;-72
2023/04/30 00:35:40;;;;;;;3.07;2.87;;;11.40;99.90;;;;;;5110967;28;20662;-72
2023/04/30 00:38:07;;;;;;;4.07;3.10;;;11.40;99.90;;;;;;5111057;28;20621;-72
2023/04/30 00:40:34;;;;;;;2.97;2.70;;;11.40;99.90;;;;;;5110205;28;21322;-72
2023/04/30 00:43:02;;;;;;;3.37;3.07;;;11.40;99.90;;;;;;5110413;28;21102;-72
2023/04/30 00:45:29;;;;;;;3.43;2.50;;;11.30;99.90;;;;;;5111185;27;20764;-72
2023/04/30 00:47:56;;;;;;;2.37;2.17;;;11.20;99.90;;;;;;5110913;28;21021;-71
2023/04/30 00:50:23;;;;;;;2.50;2.40;;;11.20;99.90;;;;;;5110082;28;20645;-72
2023/04/30 00:52:50;;;;;;;3.57;3.13;;;11.20;99.90;;;;;;5105121;28;20631;-71
2023/04/30 00:55:17;;;;;;;2.33;2.10;;;11.20;99.90;;;;;;5090409;28;20742;-72
2023/04/30 00:57:45;;;;;;;4.10;2.73;;;11.10;99.90;;;;;;5092416;28;20625;-71
2023/04/30 01:00:14;;;;;;;4.20;2.73;;;11.20;99.90;;;;;;5109900;28;20977;-72
2023/04/30 01:02:41;;;;;;;2.90;2.70;;;11.10;99.90;;;;;;5109509;28;20626;-72
2023/04/30 01:05:08;;;;;;;5.40;3.17;;;11.20;99.90;;;;;;5110530;28;20633;-72
2023/04/30 01:07:37;;;;;;;3.50;3.13;;;11.20;99.90;;;;;;5110141;28;20723;-72
2023/04/30 01:10:05;;;;;;;3.73;2.90;;;11.20;99.90;;;;;;5109877;28;20730;-72
2023/04/30 01:12:39;;;;;;;2.80;2.30;;;11.20;99.90;;;;;;5099366;28;20630;-72
2023/04/30 01:15:14;;;;;;;4.53;2.80;;;11.10;99.90;;;;;;5090115;28;20649;-72
2023/04/30 01:17:54;;;;;;;3.13;2.83;;;11.10;99.90;;;;;;5094767;28;20629;-72
2023/04/30 01:20:24;;;;;;;2.90;2.70;;;11.10;99.90;;;;;;5109828;28;20659;-72
2023/04/30 01:22:56;;;;;;;4.73;2.90;;;11.10;99.90;;;;;;5103399;28;21206;-72
2023/04/30 01:25:52;;;;;;;2.93;2.63;;;11.00;99.90;;;;;;5090261;28;21055;-72
2023/04/30 01:28:23;;;;;;;4.27;3.30;;;11.00;99.90;;;;;;5092426;28;20669;-72
2023/04/30 01:30:50;;;;;;;8.07;3.10;;;11.10;99.90;;;;;;5109784;28;20638;-72
2023/04/30 01:33:18;;;;;;;3.00;2.70;;;11.00;99.90;;;;;;5102653;28;21043;-72
2023/04/30 01:36:07;;;;;;;1.80;1.50;;;11.00;99.90;;;;;;5089722;28;20729;-72
2023/04/30 01:38:50;;;;;;;3.33;2.70;;;11.10;99.90;;;;;;5087052;28;20629;-72
2023/04/30 01:41:29;;;;;;;5.80;3.57;;;11.00;99.90;;;;;;5097424;28;20745;-72
2023/04/30 01:44:12;;;;;;;3.43;3.13;;;10.90;99.90;;;;;;5089606;28;20630;-72
2023/04/30 01:46:42;;;;;;;1.90;1.80;;;11.00;99.90;;;;;;5089312;28;20912;-72
2023/04/30 01:49:19;;;;;;;3.23;2.63;;;11.00;99.90;;;;;;5101136;28;20633;-71
2023/04/30 01:51:48;;;;;;;3.17;2.90;;;10.90;99.90;;;;;;5109687;28;20654;-71
2023/04/30 01:54:23;;;;;;;4.00;3.57;;;10.90;99.90;;;;;;5108308;28;20630;-71
2023/04/30 01:56:57;;;;;;;5.30;3.93;;;10.80;99.90;;;;;;5109623;28;20660;-71
2023/04/30 01:59:26;;;;;;;3.50;3.20;;;10.90;99.90;;;;;;5104846;28;20621;-71
2023/04/30 02:01:56;;;;;;;6.50;3.90;;;10.90;99.90;;;;;;5108939;28;20654;-71
2023/04/30 02:04:23;;;;;;;3.97;3.57;;;10.90;99.90;;;;;;5109372;28;20733;-71
2023/04/30 02:06:50;;;;;;;4.27;2.80;;;10.90;99.90;;;;;;5109271;28;20707;-71
2023/04/30 02:09:17;;;;;;;4.47;3.60;;;10.90;99.90;;;;;;5108536;28;21162;-71
2023/04/30 02:11:44;;;;;;;3.30;3.00;;;10.90;99.90;;;;;;5109274;28;20729;-71
2023/04/30 02:14:11;;;;;;;2.90;1.87;;;10.90;99.90;;;;;;5108746;28;21029;-71
2023/04/30 02:16:39;;;;;;;5.13;3.60;;;10.90;99.90;;;;;;5108419;28;20641;-71
2023/04/30 02:19:06;;;;;;;4.37;3.47;;;10.90;99.90;;;;;;5100096;28;20743;-71
2023/04/30 02:21:33;;;;;;;5.07;3.03;;;10.80;99.90;;;;;;5109210;28;20646;-71
2023/04/30 02:24:01;;;;;;;6.60;3.23;;;10.80;99.90;;;;;;5095152;28;20661;-71
2023/04/30 02:26:28;;;;;;;5.07;4.00;;;10.80;99.90;;;;;;5088319;28;21041;-72
2023/04/30 02:28:56;;;;;;;3.17;2.63;;;10.90;99.90;;;;;;5087130;28;20705;-71
2023/04/30 02:31:24;;;;;;;6.77;4.20;;;10.80;99.90;;;;;;5089423;28;20685;-71
2023/04/30 02:33:53;;;;;;;4.90;4.40;;;10.80;99.90;;;;;;5109185;28;20687;-71
2023/04/30 02:36:20;;;;;;;3.53;3.00;;;10.90;99.90;;;;;;5108874;28;21044;-70
2023/04/30 02:38:48;;;;;;;5.57;3.30;;;10.80;99.90;;;;;;5108028;28;20608;-70
2023/04/30 02:41:15;;;;;;;3.33;2.87;;;10.80;99.90;;;;;;5107964;28;20707;-71
2023/04/30 02:43:42;;;;;;;4.37;3.13;;;10.70;99.90;;;;;;5109015;28;20629;-71
2023/04/30 02:46:10;;;;;;;5.47;4.67;;;10.70;99.90;;;;;;5108847;28;20645;-71
2023/04/30 02:48:37;;;;;;;5.90;3.83;;;10.80;99.90;;;;;;5098573;28;21318;-71
2023/04/30 02:51:06;;;;;;;4.40;3.37;;;10.80;99.90;;;;;;5088833;28;20658;-71
2023/04/30 02:53:34;;;;;;;7.40;3.77;;;10.70;99.90;;;;;;5097672;28;20637;-71
2023/04/30 02:56:01;;;;;;;5.67;3.40;;;10.70;99.90;;;;;;5108430;28;21208;-71
2023/04/30 02:58:29;;;;;;;4.17;3.67;;;10.70;99.90;;;;;;5108331;27;21030;-71
2023/04/30 03:00:56;;;;;;;3.70;3.07;;;10.60;99.90;;;;;;5108390;28;20633;-71
2023/04/30 03:03:23;;;;;;;5.60;3.27;;;10.60;99.90;;;;;;5108088;28;21065;-71
2023/04/30 03:05:51;;;;;;;3.10;2.67;;;10.70;99.90;;;;;;5108343;28;20653;-71
2023/04/30 03:08:20;;;;;;;5.17;3.13;;;10.50;99.90;;;;;;5107441;28;20701;-71
2023/04/30 03:10:47;;;;;;;6.53;3.40;;;10.50;99.90;;;;;;5108236;28;21003;-71
2023/04/30 03:13:14;;;;;;;4.30;3.70;;;10.40;99.90;;;;;;5099741;28;20638;-71
2023/04/30 03:15:41;;;;;;;3.20;2.80;;;10.50;99.90;;;;;;5087956;28;21214;-71
2023/04/30 03:18:08;;;;;;;4.13;2.60;;;10.40;99.90;;;;;;5101393;28;20635;-71
2023/04/30 03:20:35;;;;;;;4.20;3.73;;;10.40;99.90;;;;;;5107579;28;21010;-71
2023/04/30 03:23:02;;;;;;;8.13;3.70;;;10.40;99.90;;;;;;5093948;28;20673;-71
2023/04/30 03:25:30;;;;;;;5.20;2.90;;;10.40;99.90;;;;;;5088040;28;20790;-71
2023/04/30 03:27:57;;;;;;;4.03;3.50;;;10.40;99.90;;;;;;5086825;28;20699;-72
2023/04/30 03:30:24;;;;;;;6.27;4.10;;;10.40;99.90;;;;;;5087253;28;20650;-72
2023/04/30 03:32:51;;;;;;;4.17;3.80;;;10.40;99.90;;;;;;5090580;28;21221;-71
2023/04/30 03:35:18;;;;;;;5.93;3.97;;;10.40;99.90;;;;;;5108129;28;20706;-71
2023/04/30 03:37:44;;;;;;;6.07;4.33;;;10.40;99.90;;;;;;5108298;28;20936;-72
2023/04/30 03:40:12;;;;;;;4.77;4.00;;;10.50;99.90;;;;;;5107479;28;20698;-72
2023/04/30 03:42:40;;;;;;;5.63;4.00;;;10.40;99.90;;;;;;5103073;28;21162;-71
2023/04/30 03:45:08;;;;;;;8.17;4.23;;;10.30;99.90;;;;;;5087599;28;20614;-72
2023/04/30 03:47:35;;;;;;;4.40;4.03;;;10.30;99.90;;;;;;5087755;28;20653;-72
2023/04/30 03:50:02;;;;;;;5.03;3.60;;;10.20;99.90;;;;;;5086892;28;20631;-72
2023/04/30 03:52:30;;;;;;;8.47;5.33;;;10.10;99.90;;;;;;5088914;28;20624;-72
2023/04/30 03:54:56;;;;;;;4.03;2.70;;;10.10;99.90;;;;;;5091719;28;21053;-71
2023/04/30 03:57:23;;;;;;;5.33;3.70;;;10.10;99.90;;;;;;5091593;28;20656;-71
2023/04/30 03:59:51;;;;;;;2.93;2.73;;;10.10;99.90;;;;;;5106205;28;20621;-71
2023/04/30 04:02:18;;;;;;;7.97;3.53;;;10.10;99.90;;;;;;5110682;28;20656;-72
2023/04/30 04:04:45;;;;;;;8.50;4.60;;;10.10;99.90;;;;;;5111786;28;20617;-71
2023/04/30 04:07:12;;;;;;;4.73;3.47;;;10.10;99.90;;;;;;5111533;28;21264;-72
2023/04/30 04:09:39;;;;;;;3.17;2.80;;;10.10;99.90;;;;;;5111456;28;20664;-71
2023/04/30 04:12:06;;;;;;;5.50;4.40;;;10.20;99.90;;;;;;5105809;28;21155;-71
2023/04/30 04:14:33;;;;;;;4.63;3.80;;;10.30;99.90;;;;;;5091246;28;20632;-72
2023/04/30 04:17:04;;;;;;;3.77;3.40;;;10.20;99.90;;;;;;5090721;28;20657;-72
2023/04/30 04:19:31;;;;;;;4.20;3.80;;;10.10;99.90;;;;;;5090668;28;20629;-71
2023/04/30 04:21:58;;;;;;;5.17;3.80;;;10.00;99.90;;;;;;5091249;28;20659;-72
2023/04/30 04:24:25;;;;;;;3.30;3.00;;;9.90;99.90;;;;;;5108840;28;20640;-72
2023/04/30 04:26:52;;;;;;;4.83;4.40;;;9.90;99.90;;;;;;5111120;28;20654;-72
2023/04/30 04:29:19;;;;;;;3.07;2.77;;;10.00;99.90;;;;;;5094024;28;20677;-72
2023/04/30 04:31:47;;;;;;;8.63;4.57;;;10.00;99.90;;;;;;5092728;28;20680;-71
2023/04/30 04:34:16;;;;;;;4.47;3.57;;;10.00;99.90;;;;;;5111582;28;20620;-72
2023/04/30 04:36:43;;;;;;;4.23;3.40;;;10.10;99.90;;;;;;5110999;28;20648;-71
2023/04/30 04:39:10;;;;;;;6.70;4.00;;;10.20;99.90;;;;;;5111053;28;20632;-72
2023/04/30 04:41:37;;;;;;;4.50;4.10;;;10.30;99.90;;;;;;5110342;28;20748;-72
2023/04/30 04:44:05;;;;;;;8.13;3.70;;;10.40;99.90;;;;;;5110580;28;21153;-71
2023/04/30 04:46:32;;;;;;;3.77;2.97;;;10.40;99.90;;;;;;5110842;28;20649;-72
2023/04/30 04:48:59;;;;;;;3.93;2.97;;;10.40;99.90;;;;;;5110327;28;20659;-72
2023/04/30 04:51:27;;;;;;;4.27;3.87;;;10.40;99.90;;;;;;5110820;28;20659;-71
2023/04/30 04:53:54;;;;;;;4.73;3.20;;;10.40;99.90;;;;;;5110855;28;20621;-71
2023/04/30 04:56:20;;;;;;;5.70;3.73;;;10.40;99.90;;;;;;5110769;28;20649;-71
2023/04/30 04:58:47;;;;;;;5.50;3.37;;;10.50;99.90;;;;;;5099401;28;20633;-72
2023/04/30 05:01:14;;;;;;;4.70;3.57;;;10.50;99.90;;;;;;5110560;28;20714;-72
2023/04/30 05:03:41;;;;;;;5.17;4.67;;;10.40;99.90;;;;;;5110988;28;20609;-72
2023/04/30 05:06:08;;;;;;;5.50;3.50;;;10.40;99.90;;;;;;5110566;28;20748;-72
2023/04/30 05:08:37;;;;;;;6.20;4.00;;;10.40;99.90;;;;;;5110068;28;20652;-71
2023/04/30 05:11:04;;;;;;;4.70;3.57;;;10.40;99.90;;;;;;5110076;28;20707;-71
2023/04/30 05:13:31;;;;;;;5.23;3.70;;;10.40;99.90;;;;;;5109652;28;20642;-72
2023/04/30 05:15:57;;;;;;;6.63;5.80;;;10.40;99.90;;;;;;5110484;27;21014;-72
2023/04/30 05:18:24;;;;;;;4.83;3.17;;;10.50;99.90;;;;;;5103577;27;20977;-72
2023/04/30 05:20:51;;;;;;;7.13;4.40;;;10.50;99.90;;;;;;5090105;28;21207;-72
2023/04/30 05:23:18;;;;;;;5.20;3.90;;;10.60;99.90;;;;;;5089937;28;20632;-72
2023/04/30 05:25:46;;;;;;;7.33;4.70;;;10.60;99.90;;;;;;5089253;28;20743;-72
2023/04/30 05:28:13;;;;;;;2.90;2.50;;;10.70;99.90;;;;;;5088789;28;20669;-72
2023/04/30 05:30:39;;;;;;;6.63;4.50;;;10.70;99.90;;;;;;5089374;28;20642;-71
2023/04/30 05:33:06;;;;;;;6.13;3.90;;;10.70;99.90;;;;;;5105633;28;20647;-73
2023/04/30 05:35:34;;;;;;;5.90;4.07;;;10.70;99.90;;;;;;5109606;28;20654;-71
2023/04/30 05:38:02;;;;;;;5.13;4.43;;;10.80;99.90;;;;;;5100834;28;20662;-72
2023/04/30 05:40:29;;;;;;;6.83;5.13;;;10.70;99.90;;;;;;5089420;28;21565;-72
2023/04/30 05:42:57;;;;;;;5.30;3.17;;;10.90;99.90;;;;;;5109875;27;20630;-73
2023/04/30 05:45:24;;;;;;;6.90;4.77;;;10.90;99.90;;;;;;5110005;28;20653;-70
2023/04/30 05:47:50;;;;;;;6.13;5.53;;;10.90;99.90;;;;;;5109601;27;21092;-70
2023/04/30 05:50:17;;;;;;;5.13;3.83;;;11.00;99.90;;;;;;5109014;28;20622;-71
2023/04/30 05:52:44;;;;;;;5.77;5.17;;;11.10;99.90;;;;;;5107708;28;20623;-71
2023/04/30 05:55:11;;;;;;;3.83;3.40;;;11.20;99.90;;;;;;5089252;28;20653;-71
2023/04/30 05:57:38;;;;;;;6.80;4.10;;;11.20;99.70;;;;;;5089488;28;20934;-71
2023/04/30 06:00:08;;;;;;;8.20;4.40;;;11.40;99.90;;;;;;5105876;28;20623;-71
2023/04/30 06:02:34;;;;;;;5.20;4.80;;;11.50;99.60;;;;;;5108950;28;20980;-71
2023/04/30 06:05:02;;;;;;;4.70;3.17;;;11.60;99.50;;;;;;5109203;28;20856;-71
2023/04/30 06:07:29;;;;;;;6.37;3.93;;;11.60;99.30;;;;;;5109168;28;20695;-72
2023/04/30 06:09:56;;;;;;;3.80;3.07;;;11.60;99.20;;;;;;5108697;28;20718;-72
2023/04/30 06:12:23;;;;;;;5.63;3.40;;;11.60;99.30;;;;;;5099846;28;20654;-73
2023/04/30 06:14:50;;;;;;;4.97;3.70;;;11.60;98.90;;;;;;5088286;28;21019;-71
2023/04/30 06:17:18;;;;;;;6.77;4.73;;;11.70;98.60;;;;;;5088883;28;21062;-71
2023/04/30 06:19:44;;;;;;;4.90;4.47;;;11.70;98.70;;;;;;5088457;28;21188;-71
2023/04/30 06:22:11;;;;;;;3.70;3.30;;;11.70;98.80;;;;;;5088780;28;20667;-71
2023/04/30 06:24:38;;;;;;;5.10;4.57;;;11.70;98.40;;;;;;5088706;28;20629;-72
2023/04/30 06:27:08;;;;;;;5.97;4.10;;;11.70;98.60;;;;;;5091634;28;21325;-76
2023/04/30 06:29:35;;;;;;;5.20;4.20;;;11.80;98.50;;;;;;5108004;28;20672;-71
2023/04/30 06:32:01;;;;;;;5.37;3.67;;;11.80;98.20;;;;;;5103891;28;20758;-72
2023/04/30 06:34:29;;;;;;;5.10;3.60;;;11.90;99.00;;;;;;5088148;28;21010;-73
2023/04/30 06:36:56;;;;;;;4.83;4.33;;;12.10;97.70;;;;;;5088618;28;20654;-71
2023/04/30 06:39:23;;;;;;;3.23;2.93;;;12.20;97.60;;;;;;5088099;28;20622;-71
2023/04/30 06:41:50;;;;;;;5.63;3.77;;;12.10;97.00;;;;;;5100420;28;20993;-72
2023/04/30 06:44:18;;;;;;;6.93;3.80;;;12.10;97.40;;;;;;5108731;28;20756;-72
2023/04/30 06:46:45;;;;;;;7.17;3.63;;;12.10;97.30;;;;;;5108717;28;20754;-72
2023/04/30 06:49:11;;;;;;;7.33;5.00;;;12.20;97.20;;;;;;5093605;28;20997;-72
2023/04/30 06:51:41;;;;;;;5.83;4.27;;;12.20;97.30;;;;;;5088671;28;20910;-72
2023/04/30 06:54:08;;;;;;;5.90;4.07;;;12.30;97.30;;;;;;5102669;28;20656;-71
2023/04/30 06:56:35;;;;;;;4.33;3.90;;;12.30;97.10;;;;;;5108563;28;20653;-71
2023/04/30 06:59:02;;;;;;;5.53;3.63;;;12.30;97.30;;;;;;5105412;28;20639;-71
2023/04/30 07:01:29;;;;;;;3.60;3.13;;;12.50;97.00;;;;;;5107573;28;20642;-71
2023/04/30 07:03:56;;;;;;;3.67;2.70;;;12.60;97.10;;;;;;5108408;28;20618;-71
2023/04/30 07:06:23;;;;;;;5.27;3.83;;;12.80;96.90;;;;;;5108624;28;20640;-72
2023/04/30 07:08:51;;;;;;;5.00;4.17;;;12.80;96.20;;;;;;5107806;28;20651;-72
2023/04/30 07:11:18;;;;;;;3.60;3.30;;;12.80;95.90;;;;;;5100374;28;20657;-72
2023/04/30 07:13:45;;;;;;;6.47;3.40;;;12.90;95.80;;;;;;5087889;28;20615;-71
2023/04/30 07:16:12;;;;;;;3.97;3.57;;;12.80;95.40;;;;;;5087431;28;21283;-72
2023/04/30 07:18:39;;;;;;;3.77;2.87;;;12.80;95.90;;;;;;5095654;28;20710;-71
2023/04/30 07:21:07;;;;;;;6.00;3.83;;;13.00;95.80;;;;;;5108068;28;20650;-72
2023/04/30 07:23:34;;;;;;;6.00;4.00;;;12.90;95.60;;;;;;5108500;28;20679;-72
2023/04/30 07:26:02;;;;;;;3.93;2.77;;;12.90;95.10;;;;;;5108380;28;21259;-72
2023/04/30 07:28:29;;;;;;;2.87;2.53;;;13.00;95.60;;;;;;5109735;28;20708;-72
2023/04/30 07:30:55;;;;;;;5.00;3.60;;;13.20;95.70;;;;;;5112073;28;20657;-72
2023/04/30 07:33:22;;;;;;;5.90;3.93;;;13.20;95.20;;;;;;5105739;28;20624;-72
2023/04/30 07:35:50;;;;;;;4.43;3.40;;;13.40;94.80;;;;;;5091845;28;21255;-72
2023/04/30 07:38:17;;;;;;;3.50;3.20;;;13.30;94.70;;;;;;5091746;28;20626;-72
2023/04/30 07:40:44;;;;;;;5.00;3.80;;;13.40;94.80;;;;;;5094517;28;20661;-72
2023/04/30 07:43:12;;;;;;;4.10;3.50;;;13.30;94.90;;;;;;5111429;28;20634;-72
2023/04/30 07:45:39;;;;;;;4.93;3.17;;;13.40;95.00;;;;;;5107831;28;21003;-72
2023/04/30 07:48:06;;;;;;;4.07;3.00;;;13.50;94.60;;;;;;5107241;27;20619;-72
2023/04/30 07:50:33;;;;;;;3.40;3.10;;;13.70;94.50;;;;;;5091049;28;20694;-72
2023/04/30 07:53:00;;;;;;;5.90;3.33;;;13.80;94.20;;;;;;5091741;28;20616;-72
2023/04/30 07:55:27;;;;;;;3.40;2.30;;;13.90;94.00;;;;;;5091423;28;20647;-72
2023/04/30 07:57:54;;;;;;;4.67;3.67;;;13.90;93.40;;;;;;5091094;28;20659;-72
2023/04/30 08:00:25;;;;;;;2.93;2.63;;;13.70;93.00;;;;;;5110486;28;20619;-71
2023/04/30 08:02:52;;;;;;;3.10;2.37;;;13.70;93.00;;;;;;5111116;28;20637;-71
2023/04/30 08:05:18;;;;;;;4.27;3.50;;;13.70;93.20;;;;;;5111811;28;20608;-71
2023/04/30 08:07:45;;;;;;;3.00;2.70;;;13.70;93.10;;;;;;5111751;28;21170;-71
2023/04/30 08:10:12;;;;;;;4.70;2.80;;;13.60;92.40;;;;;;5110752;28;20649;-71
2023/04/30 08:12:39;;;;;;;3.43;3.10;;;13.50;92.90;;;;;;5100472;28;20650;-71
2023/04/30 08:15:07;;;;;;;3.60;3.03;;;13.50;93.80;;;;;;5091143;28;20689;-72
2023/04/30 08:17:35;;;;;;;4.00;2.93;;;13.50;93.10;;;;;;5091472;28;20628;-71
2023/04/30 08:20:04;;;;;;;4.40;2.97;;;13.50;93.10;;;;;;5110933;28;20866;-71
2023/04/30 08:22:31;;;;;;;3.27;2.10;;;13.70;92.70;;;;;;5109885;28;20969;-71
2023/04/30 08:25:00;;;;;;;2.93;2.20;;;13.70;91.80;;;;;;5090238;28;20616;-71
2023/04/30 08:27:27;;;;;;;4.40;3.30;;;13.70;92.10;;;;;;5089538;28;20651;-71
2023/04/30 08:29:54;;;;;;;4.63;4.23;;;13.90;91.60;;;;;;5090346;28;20667;-71
2023/04/30 08:32:21;;;;;;;2.57;2.33;;;13.90;91.40;;;;;;5097666;28;20720;-71
2023/04/30 08:34:49;;;;;;;4.43;2.47;;;13.80;91.90;;;;;;5111034;28;20705;-72
2023/04/30 08:37:16;;;;;;;2.93;2.60;;;13.90;91.80;;;;;;5110944;28;20737;-71
2023/04/30 08:39:42;;;;;;;2.43;2.23;;;13.90;91.20;;;;;;5109850;28;20633;-71
2023/04/30 08:42:12;;;;;;;2.73;2.20;;;14.10;90.30;;;;;;5110784;28;20679;-71
2023/04/30 08:44:42;;;;;;;3.80;2.10;;;14.10;90.30;;;;;;5110571;28;20610;-71
2023/04/30 08:47:13;;;;;;;3.33;3.00;;;14.20;90.90;;;;;;5110782;28;20654;-71
2023/04/30 08:49:40;;;;;;;1.57;1.47;;;14.30;89.60;;;;;;5091804;28;20663;-71
2023/04/30 08:52:08;;;;;;;3.27;2.30;;;14.10;88.60;;;;;;5089795;28;20658;-71
2023/04/30 08:54:36;;;;;;;3.10;2.20;;;14.10;89.40;;;;;;5108045;28;20631;-71
2023/04/30 08:57:03;;;;;;;1.83;1.73;;;14.20;87.60;;;;;;5110750;28;20685;-71
2023/04/30 08:59:30;;;;;;;1.57;1.40;;;14.30;86.50;;;;;;5110215;28;20634;-71
2023/04/30 09:01:57;;;;;;;2.57;2.37;;;14.30;87.90;;;;;;5105245;28;20664;-72
2023/04/30 09:04:23;;;;;;;2.47;2.27;;;14.40;85.70;;;;;;5110224;28;20622;-71
2023/04/30 09:06:52;;;;;;;2.20;1.90;;;14.40;87.00;;;;;;5110558;28;20643;-71
2023/04/30 09:09:21;;;;;;;2.53;2.07;;;14.30;83.90;;;;;;5110131;28;20659;-71
2023/04/30 09:11:47;;;;;;;3.37;2.23;;;14.40;84.10;;;;;;5106608;28;20744;-71
2023/04/30 09:14:24;;;;;;;3.70;2.30;;;14.50;85.50;;;;;;5090394;28;20614;-72
2023/04/30 09:16:53;;;;;;;2.60;2.40;;;14.50;83.80;;;;;;5089855;28;20647;-71
2023/04/30 09:19:26;;;;;;;2.83;1.53;;;14.30;82.90;;;;;;5089443;28;20620;-71
2023/04/30 09:21:53;;;;;;;2.60;2.40;;;14.40;84.00;;;;;;5090168;28;20651;-72
2023/04/30 09:24:21;;;;;;;2.53;2.10;;;14.50;82.70;;;;;;5105783;28;20648;-71
2023/04/30 09:26:49;;;;;;;4.00;2.37;;;14.40;81.70;;;;;;5110036;28;20665;-72
2023/04/30 09:29:16;;;;;;;2.23;1.90;;;14.50;80.80;;;;;;5094841;28;21014;-72
2023/04/30 09:31:46;;;;;;;1.50;1.40;;;14.60;81.80;;;;;;5090954;28;20682;-71
2023/04/30 09:34:13;;;;;;;2.50;2.30;;;14.60;81.70;;;;;;5110573;28;20654;-72
2023/04/30 09:36:53;;;;;;;1.67;1.50;;;14.70;83.40;;;;;;5110117;28;20644;-72
2023/04/30 09:39:21;;;;;;;2.10;1.90;;;14.80;82.60;;;;;;5109448;28;20638;-72
2023/04/30 09:41:51;;;;;;;1.90;1.80;;;14.90;80.30;;;;;;5108952;27;20640;-72
2023/04/30 09:44:28;;;;;;;3.77;1.83;;;14.80;79.70;;;;;;5109341;28;20622;-72
2023/04/30 09:46:56;;;;;;;2.03;1.40;;;14.70;79.50;;;;;;5110100;28;20656;-72
2023/04/30 09:49:23;;;;;;;1.47;1.37;;;14.60;80.00;;;;;;5093887;28;20661;-72
2023/04/30 09:51:56;;;;;;;1.70;1.60;;;14.70;79.00;;;;;;5088787;28;21235;-72
2023/04/30 09:54:27;;;;;;;1.53;1.30;;;14.80;80.70;;;;;;5105904;28;20631;-72
2023/04/30 09:56:55;;;;;;;1.93;1.77;;;14.80;79.40;;;;;;5109764;28;20663;-72
2023/04/30 09:59:23;;;;;;;2.20;1.77;;;14.80;79.30;;;;;;5104151;28;21252;-73
2023/04/30 10:01:52;;;;;;;2.30;2.10;;;14.90;80.20;;;;;;5108805;28;21011;-70
2023/04/30 10:04:20;;;;;;;1.97;1.77;;;14.90;79.90;;;;;;5109455;28;20626;-71
2023/04/30 10:06:47;;;;;;;2.30;2.07;;;14.90;78.40;;;;;;5109355;28;21208;-72
2023/04/30 10:09:15;;;;;;;3.27;1.80;;;14.90;78.00;;;;;;5108214;28;20657;-72
2023/04/30 10:11:45;;;;;;;1.37;1.27;;;14.90;77.40;;;;;;5107306;28;20653;-72
2023/04/30 10:14:13;;;;;;;1.40;1.30;;;14.90;79.90;;;;;;5089093;28;20617;-72
2023/04/30 10:16:46;;;;;;;2.17;2.07;;;14.90;79.60;;;;;;5089164;28;20991;-72
2023/04/30 10:19:17;;;;;;;1.57;1.40;;;15.00;78.60;;;;;;5101252;28;20637;-72
2023/04/30 10:21:46;;;;;;;2.30;1.90;;;15.10;76.90;;;;;;5108189;28;20648;-72
2023/04/30 10:24:16;;;;;;;1.50;1.40;;;15.10;77.60;;;;;;5106486;28;20974;-72
2023/04/30 10:26:46;;;;;;;3.63;2.63;;;15.20;76.50;;;;;;5108240;28;21284;-72
2023/04/30 10:29:13;;;;;;;1.63;1.47;;;15.30;76.10;;;;;;5107093;28;20621;-72
2023/04/30 10:31:43;;;;;;;1.50;1.40;;;15.30;76.90;;;;;;5107772;28;21143;-72
2023/04/30 10:34:17;;;;;;;1.40;1.30;;;15.30;76.60;;;;;;5088127;28;20628;-72
2023/04/30 10:36:48;;;;;;;2.37;1.80;;;15.20;77.10;;;;;;5088660;28;20665;-72
2023/04/30 10:39:17;;;;;;;1.47;1.37;;;15.30;77.00;;;;;;5088029;28;20688;-72
2023/04/30 10:41:47;;;;;;;2.47;1.70;;;15.50;76.30;;;;;;5100157;28;20765;-72
2023/04/30 10:44:15;;;;;;;1.50;1.40;;;15.60;75.90;;;;;;5108039;28;20686;-72
2023/04/30 10:46:42;;;;;;;3.23;2.00;;;15.60;77.20;;;;;;5108026;28;21303;-72
2023/04/30 10:49:13;;;;;;;1.97;1.80;;;15.60;75.60;;;;;;5108133;28;20618;-72
2023/04/30 10:51:47;;;;;;;1.90;1.77;;;15.70;74.90;;;;;;5108682;28;20699;-72
2023/04/30 10:54:17;;;;;;;2.37;1.50;;;15.70;73.30;;;;;;5108697;28;20723;-72
2023/04/30 10:56:46;;;;;;;1.53;1.43;;;15.70;74.20;;;;;;5108485;28;20662;-72
2023/04/30 10:59:14;;;;;;;1.77;1.53;;;15.60;74.40;;;;;;5104141;28;20632;-72
2023/04/30 11:01:58;;;;;;;2.37;2.17;;;15.60;73.50;;;;;;5108252;28;20641;-72
2023/04/30 11:04:25;;;;;;;1.67;1.57;;;15.80;74.40;;;;;;5088062;28;20654;-72
2023/04/30 11:07:02;;;;;;;3.60;1.90;;;15.90;72.80;;;;;;5088137;28;20665;-72
2023/04/30 11:09:37;;;;;;;1.80;1.70;;;15.90;72.80;;;;;;5086941;28;20659;-72
2023/04/30 11:12:09;;;;;;;1.73;1.63;;;15.70;72.90;;;;;;5092819;28;20751;-72
2023/04/30 11:14:43;;;;;;;1.93;1.80;;;15.60;72.80;;;;;;5108402;28;20618;-72
2023/04/30 11:17:11;;;;;;;1.90;1.80;;;15.50;74.50;;;;;;5108838;28;20746;-72
2023/04/30 11:19:47;;;;;;;1.80;1.70;;;15.50;73.40;;;;;;5107449;28;20666;-72
2023/04/30 11:22:22;;;;;;;2.50;2.30;;;15.50;73.10;;;;;;5107763;28;20643;-72
2023/04/30 11:25:03;;;;;;;2.43;1.90;;;15.50;74.30;;;;;;5108344;28;20625;-72
2023/04/30 11:27:31;;;;;;;2.13;1.93;;;15.50;72.60;;;;;;5102138;28;20626;-72
2023/04/30 11:30:01;;;;;;;3.23;2.40;;;15.50;74.10;;;;;;5087242;28;20753;-72
2023/04/30 11:32:36;;;;;;;1.83;1.53;;;15.50;73.40;;;;;;5096502;28;21054;-72
2023/04/30 11:35:05;;;;;;;2.90;2.20;;;15.40;74.50;;;;;;5108438;28;20644;-71
2023/04/30 11:37:33;;;;;;;2.20;1.67;;;15.50;74.80;;;;;;5107985;28;21253;-71
2023/04/30 11:40:02;;;;;;;1.83;1.70;;;15.60;72.40;;;;;;5107036;28;20637;-71
2023/04/30 11:42:33;;;;;;;1.83;1.70;;;15.60;74.00;;;;;;5107170;28;20658;-72
2023/04/30 11:45:08;;;;;;;1.70;1.60;;;15.70;72.40;;;;;;5103515;28;20650;-71
2023/04/30 11:47:40;;;;;;;2.33;1.53;;;15.60;72.90;;;;;;5088146;28;20725;-72
2023/04/30 11:50:08;;;;;;;2.13;1.70;;;15.70;72.50;;;;;;5086948;28;20654;-71
2023/04/30 11:52:35;;;;;;;2.13;1.90;;;15.80;72.40;;;;;;5087313;28;20627;-72
2023/04/30 11:55:05;;;;;;;1.53;1.43;;;15.80;70.40;;;;;;5087741;28;20618;-72
2023/04/30 11:57:39;;;;;;;1.60;1.50;;;15.80;70.70;;;;;;5086979;28;20658;-72
2023/04/30 12:00:15;;;;;;;2.73;1.97;;;15.80;70.40;;;;;;5104648;28;20625;-72
2023/04/30 12:02:44;;;;;;;2.40;2.10;;;16.00;70.00;;;;;;5107472;28;20625;-72
2023/04/30 12:05:15;;;;;;;1.53;1.43;;;16.00;69.40;;;;;;5108028;28;20717;-72
2023/04/30 12:07:48;;;;;;;1.77;1.67;;;16.20;71.70;;;;;;5107715;28;20634;-72
2023/04/30 12:10:15;;;;;;;2.37;1.73;;;16.30;71.10;;;;;;5107007;28;20653;-73
2023/04/30 12:12:43;;;;;;;1.90;1.80;;;16.40;69.30;;;;;;5097025;28;20627;-72
2023/04/30 12:15:17;;;;;;;1.60;1.50;;;16.70;71.00;;;;;;5091082;28;21171;-70
2023/04/30 12:17:45;;;;;;;1.93;1.83;;;16.70;67.80;;;;;;5091822;28;20974;-70
2023/04/30 12:20:14;;;;;;;1.83;1.43;;;16.60;68.90;;;;;;5090320;28;21174;-70
2023/04/30 12:22:41;;;;;;;1.90;1.70;;;16.50;69.10;;;;;;5091146;28;21245;-71
2023/04/30 12:25:12;;;;;;;2.10;2.00;;;16.40;71.20;;;;;;5091266;28;20626;-71
2023/04/30 12:27:40;;;;;;;3.57;2.00;;;16.30;69.90;;;;;;5095584;28;20623;-72
2023/04/30 12:30:08;;;;;;;1.47;1.37;;;16.30;69.10;;;;;;5090285;28;21034;-72
2023/04/30 12:32:43;;;;;;;2.13;1.43;;;16.20;70.10;;;;;;5091084;28;20647;-72
2023/04/30 12:35:14;;;;;;;1.90;1.53;;;16.20;70.90;;;;;;5090494;28;20622;-72
2023/04/30 12:37:44;;;;;;;2.30;2.07;;;16.40;70.30;;;;;;5091089;28;20617;-72
2023/04/30 12:40:12;;;;;;;1.60;1.50;;;16.40;69.50;;;;;;5090048;28;21138;-72
2023/04/30 12:42:39;;;;;;;3.30;2.07;;;16.50;68.70;;;;;;5109539;28;20622;-72
2023/04/30 12:45:07;;;;;;;1.83;1.73;;;16.50;68.30;;;;;;5110901;28;21194;-72
2023/04/30 12:47:39;;;;;;;2.13;2.03;;;16.40;68.90;;;;;;5111106;28;20656;-72
2023/04/30 12:50:11;;;;;;;1.57;1.47;;;16.30;69.30;;;;;;5110600;28;20649;-72
2023/04/30 12:52:39;;;;;;;3.50;2.50;;;16.40;68.10;;;;;;5107259;28;20684;-72
2023/04/30 12:55:19;;;;;;;2.27;2.07;;;16.40;67.80;;;;;;5090677;28;20991;-72